Time;durP1;ratioP1;P1;durP2;ratioP2;P2;SDS_P1;SDS_P2;PMS_P1;PMS_P2;Temp;Humidity;BMP_temperature;BMP_pressure;BME280_temperature;BME280_humidity;BME280_pressure;Samples;Min_cycle;Max_cycle;Signal;HPM_P1;HPM_P2
2021/11/04 00:25:08;;;;;;;19.02;12.93;;;;;;;-140.66;100.00;55571.53;4900828;29;20411;-69
2021/11/04 00:27:54;;;;;;;19.33;13.77;;;;;;;-140.66;100.00;55571.53;4918688;29;20113;-70
2021/11/04 00:30:40;;;;;;;21.45;14.65;;;;;;;-140.66;100.00;55571.53;4918384;29;20051;-68
2021/11/04 00:33:26;;;;;;;18.52;13.32;;;;;;;-140.66;100.00;55571.53;4918904;29;20034;-70
2021/11/04 00:36:12;;;;;;;17.38;13.27;;;;;;;-140.66;100.00;55571.53;4918739;29;20172;-69
2021/11/04 00:38:57;;;;;;;21.35;14.30;;;;;;;-140.66;100.00;55571.53;4918238;29;20020;-69
2021/11/04 00:41:43;;;;;;;20.27;13.88;;;;;;;-140.66;100.00;55571.53;4919242;29;20526;-69
2021/11/04 00:44:29;;;;;;;20.35;14.57;;;;;;;-140.66;100.00;55571.53;4918568;29;20059;-70
2021/11/04 00:47:15;;;;;;;19.52;13.80;;;;;;;-140.66;100.00;55571.53;4918261;29;20063;-70
2021/11/04 00:50:00;;;;;;;18.00;13.45;;;;;;;-140.66;100.00;55571.53;4918815;29;20032;-70
2021/11/04 00:52:46;;;;;;;17.85;12.68;;;;;;;-140.66;100.00;55571.53;4918466;29;20097;-69
2021/11/04 00:55:32;;;;;;;16.08;12.18;;;;;;;-140.66;100.00;55571.53;4918483;29;20071;-70
2021/11/04 00:58:21;;;;;;;18.70;12.85;;;;;;;-140.66;100.00;55571.53;4918332;29;20036;-69
2021/11/04 01:01:06;;;;;;;20.02;13.98;;;;;;;-140.66;100.00;55571.53;4918836;29;20032;-71
2021/11/04 01:55:03;;;;;;;23.48;16.75;;;;;;;-140.66;100.00;55571.53;5724541;23;20039;-69
2021/11/04 01:57:49;;;;;;;21.25;15.68;;;;;;;-140.66;100.00;55571.53;4942012;29;20058;-68
2021/11/04 02:00:35;;;;;;;24.00;16.50;;;;;;;-140.66;100.00;55571.53;4957204;28;20041;-69
2021/11/04 02:03:38;;;;;;;24.60;16.77;;;;;;;-140.66;100.00;55571.53;4956936;28;20031;-70
2021/11/04 02:06:32;;;;;;;24.08;16.33;;;;;;;-140.66;100.00;55571.53;4957480;28;20035;-69
2021/11/04 02:09:28;;;;;;;27.25;16.67;;;;;;;-140.66;100.00;55571.53;4957049;28;20035;-68
2021/11/04 04:19:51;;;;;;;101.38;55.17;;;;;;;-140.66;100.00;55571.53;4991139;23;20138;-68
2021/11/04 04:22:37;;;;;;;71.03;40.30;;;;;;;-140.66;100.00;55571.53;4956564;29;20039;-68
2021/11/04 04:25:23;;;;;;;63.72;38.28;;;;;;;-140.66;100.00;55571.53;4957055;29;20019;-68
2021/11/04 04:28:09;;;;;;;53.30;32.08;;;;;;;-140.66;100.00;55571.53;4956947;29;20449;-67
2021/11/04 04:30:54;;;;;;;52.35;31.45;;;;;;;-140.66;100.00;55571.53;4958180;28;20089;-68
2021/11/04 04:33:40;;;;;;;42.63;27.40;;;;;;;-140.66;100.00;55571.53;4958451;28;20462;-67
2021/11/04 04:36:26;;;;;;;37.88;25.73;;;;;;;-140.66;100.00;55571.53;4957110;29;20046;-67
2021/11/04 04:39:12;;;;;;;38.72;26.40;;;;;;;-140.66;100.00;55571.53;4943007;29;20027;-68
2021/11/04 04:41:57;;;;;;;40.33;25.38;;;;;;;-140.66;100.00;55571.53;4958070;28;20023;-68
2021/11/04 04:44:43;;;;;;;34.53;22.35;;;;;;;-140.66;100.00;55571.53;4958283;28;20074;-68
2021/11/04 04:47:29;;;;;;;35.30;22.20;;;;;;;-140.66;100.00;55571.53;4958054;28;20031;-69
2021/11/04 04:50:15;;;;;;;33.42;22.65;;;;;;;-140.66;100.00;55571.53;4942654;29;20040;-68
2021/11/04 04:53:01;;;;;;;33.55;23.42;;;;;;;-140.66;100.00;55571.53;4943174;29;20066;-69
2021/11/04 04:55:47;;;;;;;35.72;22.48;;;;;;;-140.66;100.00;55571.53;4956274;29;20387;-68
2021/11/04 05:19:04;;;;;;;31.20;22.33;;;;;;;-140.66;100.00;55571.53;5996982;23;20023;-66
2021/11/04 07:50:49;;;;;;;35.25;22.25;;;;;;;-140.66;100.00;55571.53;5083409;23;20079;-70
2021/11/04 07:53:35;;;;;;;35.05;20.90;;;;;;;-140.66;100.00;55571.53;4957587;29;20063;-71
2021/11/04 07:56:21;;;;;;;33.17;21.95;;;;;;;-140.66;100.00;55571.53;4957338;29;20370;-70
2021/11/04 07:59:07;;;;;;;33.33;23.17;;;;;;;-140.66;100.00;55571.53;4959012;28;20034;-70
2021/11/04 08:01:52;;;;;;;31.83;21.73;;;;;;;-140.66;100.00;55571.53;4959110;28;20019;-70
2021/11/04 08:04:38;;;;;;;37.30;19.95;;;;;;;-140.66;100.00;55571.53;4943858;29;20035;-70
2021/11/04 08:07:24;;;;;;;30.92;19.65;;;;;;;-140.66;100.00;55571.53;4958980;28;20027;-70
2021/11/04 08:10:12;;;;;;;33.90;20.27;;;;;;;-140.66;100.00;55571.53;4959237;28;20038;-71
2021/11/04 08:13:04;;;;;;;31.88;19.88;;;;;;;-140.66;100.00;55571.53;4958831;28;20023;-70
2021/11/04 08:15:50;;;;;;;37.17;19.17;;;;;;;-140.66;100.00;55571.53;4945336;28;20031;-71
2021/11/04 08:18:35;;;;;;;31.25;19.80;;;;;;;-140.66;100.00;55571.53;4958051;28;20027;-70
2021/11/04 08:21:21;;;;;;;34.58;21.25;;;;;;;-140.66;100.00;55571.53;4958625;28;20122;-70
2021/11/04 08:24:07;;;;;;;32.58;20.33;;;;;;;-140.66;100.00;55571.53;4958580;28;20402;-71
2021/11/04 08:26:53;;;;;;;31.25;19.33;;;;;;;-140.66;100.00;55571.53;4958301;28;20038;-71
2021/11/04 08:47:09;;;;;;;25.17;18.65;;;;;;;-140.66;100.00;55571.53;4987196;23;20054;-70
2021/11/04 08:49:56;;;;;;;22.38;16.55;;;;;;;-140.66;100.00;55571.53;4975641;28;20075;-69
2021/11/04 08:52:43;;;;;;;29.63;17.33;;;;;;;-140.66;100.00;55571.53;4976151;28;20042;-70
2021/11/04 08:55:28;;;;;;;25.98;16.75;;;;;;;-140.66;100.00;55571.53;4976307;28;20030;-70
2021/11/04 08:58:14;;;;;;;23.67;16.70;;;;;;;-140.66;100.00;55571.53;4976297;28;20035;-71
2021/11/04 09:01:01;;;;;;;20.90;14.75;;;;;;;-140.66;100.00;55571.53;4976186;28;20066;-70
2021/11/04 09:03:47;;;;;;;24.98;15.80;;;;;;;-140.66;100.00;55571.53;4975990;28;20105;-70
2021/11/04 09:06:32;;;;;;;26.02;16.05;;;;;;;-140.66;100.00;55571.53;4975913;28;20035;-69
2021/11/04 09:09:18;;;;;;;28.30;15.88;;;;;;;-140.66;100.00;55571.53;4976067;28;20114;-70
2021/11/04 09:12:04;;;;;;;24.73;15.55;;;;;;;-140.66;100.00;55571.53;4974837;28;20430;-70
2021/11/04 09:14:50;;;;;;;24.75;14.82;;;;;;;-140.66;100.00;55571.53;4962815;28;20034;-70
2021/11/04 09:17:37;;;;;;;22.45;14.32;;;;;;;-140.66;100.00;55571.53;4975697;28;20035;-70
2021/11/04 09:20:22;;;;;;;24.80;17.15;;;;;;;-140.66;100.00;55571.53;4975858;28;20062;-71
2021/11/04 09:23:08;;;;;;;22.88;14.40;;;;;;;-140.66;100.00;55571.53;4975982;28;20027;-70
2021/11/04 09:25:54;;;;;;;15.43;12.07;;;;;;;-140.66;100.00;55571.53;4975447;28;20039;-70
2021/11/04 09:28:40;;;;;;;17.02;12.52;;;;;;;-140.66;100.00;55571.53;4975580;28;20027;-70
2021/11/04 09:31:26;;;;;;;15.02;12.25;;;;;;;-140.66;100.00;55571.53;4974612;28;20334;-70
2021/11/04 09:34:13;;;;;;;17.25;12.68;;;;;;;-140.66;100.00;55571.53;4974999;28;20110;-71
2021/11/04 09:37:00;;;;;;;17.50;12.07;;;;;;;-140.66;100.00;55571.53;4976054;28;20068;-70
2021/11/04 09:39:49;;;;;;;19.15;13.23;;;;;;;-140.66;100.00;55571.53;4974568;28;20027;-70
2021/11/04 09:42:35;;;;;;;20.00;13.73;;;;;;;-140.66;100.00;55571.53;4961936;28;20030;-69
2021/11/04 09:45:23;;;;;;;24.75;15.30;;;;;;;-140.66;100.00;55571.53;4975270;28;20180;-70
2021/11/04 09:48:09;;;;;;;24.20;15.38;;;;;;;-140.66;100.00;55571.53;4975414;28;20031;-70
2021/11/04 09:50:55;;;;;;;22.70;14.75;;;;;;;-140.66;100.00;55571.53;4975628;28;20027;-69
2021/11/04 09:53:42;;;;;;;24.38;14.60;;;;;;;-140.66;100.00;55571.53;4961519;28;20361;-70
2021/11/04 09:56:29;;;;;;;23.65;14.50;;;;;;;-140.66;100.00;55571.53;4976325;28;20034;-70
2021/11/04 09:59:15;;;;;;;26.67;13.77;;;;;;;-140.66;100.00;55571.53;4979605;28;20027;-69
2021/11/04 10:02:00;;;;;;;19.20;13.90;;;;;;;-140.66;100.00;55571.53;4979044;28;20031;-70
2021/11/04 10:04:47;;;;;;;20.80;13.52;;;;;;;-140.66;100.00;55571.53;4979132;28;20426;-70
2021/11/04 10:34:37;;;;;;;16.98;11.95;;;;;;;-140.66;100.00;55571.53;5614465;23;20480;-70
2021/11/04 10:37:23;;;;;;;14.10;11.27;;;;;;;-140.66;100.00;55571.53;4960144;28;20365;-69
2021/11/04 10:40:16;;;;;;;16.08;11.25;;;;;;;-140.66;100.00;55571.53;4945310;29;20075;-69
2021/11/04 10:43:02;;;;;;;15.57;10.45;;;;;;;-140.66;100.00;55571.53;4958042;29;20064;-70
2021/11/04 10:45:59;;;;;;;15.85;10.10;;;;;;;-140.66;100.00;55571.53;4958389;29;20031;-70
2021/11/04 10:48:47;;;;;;;18.23;11.02;;;;;;;-140.66;100.00;55571.53;4959851;28;20031;-70
2021/11/04 10:51:33;;;;;;;16.33;10.38;;;;;;;-140.66;100.00;55571.53;4944449;29;20058;-70
2021/11/04 10:54:19;;;;;;;14.25;10.13;;;;;;;-140.66;100.00;55571.53;4959059;29;20118;-70
2021/11/04 10:57:05;;;;;;;16.23;9.48;;;;;;;-140.66;100.00;55571.53;4957674;29;20035;-69
2021/11/04 10:59:50;;;;;;;14.30;9.57;;;;;;;-140.66;100.00;55571.53;4958826;29;20023;-70
2021/11/04 11:02:36;;;;;;;15.57;9.50;;;;;;;-140.66;100.00;55571.53;4958599;29;20038;-70
2021/11/04 11:05:33;;;;;;;16.75;9.45;;;;;;;-140.66;100.00;55571.53;4958964;29;20446;-69
2021/11/04 11:08:19;;;;;;;17.95;10.63;;;;;;;-140.66;100.00;55571.53;4958322;28;20114;-71
2021/11/04 11:11:05;;;;;;;17.88;9.43;;;;;;;-140.66;100.00;55571.53;4958700;29;20023;-69
2021/11/04 11:13:51;;;;;;;21.98;10.05;;;;;;;-140.66;100.00;55571.53;4957992;29;20450;-69
2021/11/04 11:16:41;;;;;;;20.20;10.02;;;;;;;-140.66;100.00;55571.53;4958418;29;20038;-70
2021/11/04 11:19:28;;;;;;;18.33;9.80;;;;;;;-140.66;100.00;55571.53;4957909;29;20023;-71
2021/11/04 11:22:15;;;;;;;14.90;9.18;;;;;;;-140.66;100.00;55571.53;4958917;29;20031;-70
2021/11/04 11:25:01;;;;;;;14.23;9.60;;;;;;;-140.66;100.00;55571.53;4959060;28;20035;-71
2021/11/04 11:27:49;;;;;;;14.25;9.30;;;;;;;-140.66;100.00;55571.53;4958529;29;20323;-70
2021/11/04 11:30:35;;;;;;;15.00;9.57;;;;;;;-140.66;100.00;55571.53;4957911;29;20027;-70
2021/11/04 13:55:23;;;;;;;11.85;7.40;;;;;;;-140.66;100.00;55571.53;5447596;23;20079;-69
2021/11/04 13:58:10;;;;;;;11.27;7.03;;;;;;;-140.66;100.00;55571.53;4937571;29;20052;-69
2021/11/04 14:01:05;;;;;;;12.13;7.28;;;;;;;-140.66;100.00;55571.53;4935693;29;20063;-68
2021/11/04 14:04:08;;;;;;;12.85;7.47;;;;;;;-140.66;100.00;55571.53;4936487;29;20036;-69
2021/11/04 14:06:54;;;;;;;15.32;7.57;;;;;;;-140.66;100.00;55571.53;4935332;29;20118;-68
2021/11/04 14:09:41;;;;;;;10.98;7.78;;;;;;;-140.66;100.00;55571.53;4936015;29;20027;-69
2021/11/04 14:12:34;;;;;;;13.88;7.10;;;;;;;-140.66;100.00;55571.53;4923319;29;20023;-69
2021/11/04 14:15:23;;;;;;;12.30;7.70;;;;;;;-140.66;100.00;55571.53;4935487;29;20036;-69
2021/11/04 14:18:19;;;;;;;18.85;8.90;;;;;;;-140.66;100.00;55571.53;4936498;29;20035;-69
2021/11/04 14:21:05;;;;;;;12.75;7.93;;;;;;;-140.66;100.00;55571.53;4936701;29;20118;-69
2021/11/04 14:23:51;;;;;;;14.52;7.82;;;;;;;-140.66;100.00;55571.53;4935058;29;20086;-69
2021/11/04 14:26:38;;;;;;;15.65;8.93;;;;;;;-140.66;100.00;55571.53;4936752;29;20118;-69
2021/11/04 14:29:24;;;;;;;16.05;9.18;;;;;;;-140.66;100.00;55571.53;4937204;29;20105;-69
2021/11/04 14:32:10;;;;;;;15.65;8.93;;;;;;;-140.66;100.00;55571.53;4936816;29;20058;-69
2021/11/04 14:55:38;;;;;;;16.55;9.45;;;;;;;-140.66;100.00;55571.53;5901318;23;20023;-70
2021/11/04 14:58:23;;;;;;;18.15;9.40;;;;;;;-140.66;100.00;55571.53;4919874;29;20098;-69
2021/11/04 15:01:10;;;;;;;14.82;8.48;;;;;;;-140.66;100.00;55571.53;4906185;29;20063;-68
2021/11/04 15:03:56;;;;;;;17.52;9.32;;;;;;;-140.66;100.00;55571.53;4919380;29;20367;-69
2021/11/04 15:06:42;;;;;;;18.35;10.85;;;;;;;-140.66;100.00;55571.53;4919426;29;20036;-69
2021/11/04 15:09:28;;;;;;;18.92;11.40;;;;;;;-140.66;100.00;55571.53;4906084;29;20039;-68
2021/11/04 15:12:15;;;;;;;22.92;12.02;;;;;;;-140.66;100.00;55571.53;4920641;29;20032;-68
2021/11/04 15:15:02;;;;;;;23.55;11.57;;;;;;;-140.66;100.00;55571.53;4920290;29;20091;-68
2021/11/04 15:17:48;;;;;;;26.02;12.80;;;;;;;-140.66;100.00;55571.53;4920689;29;20036;-68
2021/11/04 15:20:34;;;;;;;27.63;13.30;;;;;;;-140.66;100.00;55571.53;4918914;29;20430;-69
2021/11/04 15:23:20;;;;;;;28.08;13.73;;;;;;;-140.66;100.00;55571.53;4919797;29;20020;-68
2021/11/04 15:26:07;;;;;;;28.58;12.48;;;;;;;-140.66;100.00;55571.53;4920340;29;20032;-69
2021/11/04 15:28:53;;;;;;;27.42;13.70;;;;;;;-140.66;100.00;55571.53;4920246;29;20514;-68
2021/11/04 15:31:40;;;;;;;29.65;14.32;;;;;;;-140.66;100.00;55571.53;4920413;29;20470;-67
2021/11/04 15:34:26;;;;;;;28.27;14.07;;;;;;;-140.66;100.00;55571.53;4920231;29;20024;-68
2021/11/04 17:45:03;;;;;;;32.80;19.80;;;;;;;-140.66;100.00;55571.53;5880003;23;20027;-68
2021/11/04 17:47:50;;;;;;;30.52;19.52;;;;;;;-140.66;100.00;55571.53;4918928;29;20047;-69
2021/11/04 17:50:38;;;;;;;32.72;20.38;;;;;;;-140.66;100.00;55571.53;4918278;29;20032;-68
2021/11/04 17:53:24;;;;;;;38.42;22.85;;;;;;;-140.66;100.00;55571.53;4919056;29;20039;-68
2021/11/04 17:56:11;;;;;;;42.60;25.45;;;;;;;-140.66;100.00;55571.53;4918292;29;20419;-68
2021/11/04 17:58:56;;;;;;;39.28;24.33;;;;;;;-140.66;100.00;55571.53;4902708;29;20095;-69
2021/11/04 18:01:43;;;;;;;42.35;24.23;;;;;;;-140.66;100.00;55571.53;4903258;29;20024;-68
2021/11/04 18:04:29;;;;;;;35.58;22.80;;;;;;;-140.66;100.00;55571.53;4904250;29;20032;-69
2021/11/04 18:07:15;;;;;;;43.88;25.10;;;;;;;-140.66;100.00;55571.53;4916612;29;20028;-68
2021/11/04 18:10:03;;;;;;;38.25;24.15;;;;;;;-140.66;100.00;55571.53;4917027;29;20036;-69
2021/11/04 18:12:50;;;;;;;36.80;24.70;;;;;;;-140.66;100.00;55571.53;4903315;29;20135;-69
2021/11/04 18:15:36;;;;;;;41.70;24.75;;;;;;;-140.66;100.00;55571.53;4917422;29;20370;-68
2021/11/04 18:18:22;;;;;;;39.58;25.92;;;;;;;-140.66;100.00;55571.53;4919739;29;20118;-69
2021/11/04 18:21:10;;;;;;;42.55;27.15;;;;;;;-140.66;100.00;55571.53;4919254;29;20028;-68
2021/11/04 18:23:56;;;;;;;47.15;29.63;;;;;;;-140.66;100.00;55571.53;4921508;29;20122;-69
2021/11/04 18:26:42;;;;;;;50.28;28.65;;;;;;;-140.66;100.00;55571.53;4920925;29;20371;-69
2021/11/04 18:29:28;;;;;;;38.22;25.50;;;;;;;-140.66;100.00;55571.53;4921192;29;20028;-69
2021/11/04 18:32:15;;;;;;;43.63;26.45;;;;;;;-140.66;100.00;55571.53;4906699;29;20110;-69
2021/11/04 18:35:01;;;;;;;39.58;27.73;;;;;;;-140.66;100.00;55571.53;4920365;29;20383;-68
2021/11/04 18:37:47;;;;;;;46.88;27.63;;;;;;;-140.66;100.00;55571.53;4919086;29;20115;-68
2021/11/04 18:40:34;;;;;;;46.60;28.90;;;;;;;-140.66;100.00;55571.53;4920188;29;20051;-68
2021/11/04 18:43:19;;;;;;;47.85;29.70;;;;;;;-140.66;100.00;55571.53;4919411;29;20095;-69
2021/11/04 18:46:09;;;;;;;45.70;30.50;;;;;;;-140.66;100.00;55571.53;4918893;29;20087;-69
2021/11/04 21:14:58;;;;;;;58.72;36.55;;;;;;;16.87;100.00;101171.25;5499831;23;20047;-70
2021/11/04 21:17:45;;;;;;;51.20;36.00;;;;;;;17.01;100.00;101157.53;4937700;29;20071;-69
2021/11/04 21:20:31;;;;;;;58.50;35.63;;;;;;;17.07;100.00;101170.53;4936446;29;20047;-69
2021/11/04 21:23:17;;;;;;;50.75;34.25;;;;;;;17.31;100.00;101173.13;4937720;29;20036;-70
2021/11/04 21:26:02;;;;;;;50.08;35.28;;;;;;;17.06;100.00;101182.03;4937461;29;20213;-70
2021/11/04 21:28:49;;;;;;;56.97;37.97;;;;;;;16.61;100.00;101173.09;4937683;29;20028;-70
